Terminal Aerodrome Forecast
Issued by NWS Flagstaff, AZ

Home | Current Version | Previous Version | Text Only | Print | Product List | Glossary On
Versions: 1 2 3 4 5 6 7 8 9 10 11 12 13 14
000
FTUS45 KFGZ 241140
TAFINW
TAF
KINW 241140Z 2412/2512 21009KT P6SM BKN100
     FM242000 27010G20KT P6SM BKN080 PROB30 2421/2502 VRB15G25KT
      -TSRA BKN060CB
     FM250300 22008KT P6SM BKN080=

USA.gov is the U.S. government's official web portal to all federal, state and local government web resources and services.